Terminal Aerodrome Forecast
Issued by NWS

Home | Current Version | Previous Version | Text Only | Print | Product List | Glossary On
Versions: 1 2 3 4 5 6 7 8 9 10 11 12
056
FTUS46 KSGX 301742
TAFSNA
TAF
KSNA 301742Z 3018/0118 21006KT P6SM SKC
     FM302000 22009KT P6SM SKC
     FM010200 20004KT P6SM FEW008
      TEMPO 0113/0116 VRB03KT 5SM BR BKN007=

USA.gov is the U.S. government's official web portal to all federal, state and local government web resources and services.